10 min.
METAR EHVL 151655Z AUTO 02013KT 9999 OVC230 07/03 Q1031 BLU

METAR uitleg | Integreren

METAR Vlieland Heliport

Vlieland Heliport is een helikopterhaven in Vlieland, Nederland. De terreinhoogte is 37 ft.

Dit rapport is opgesteld voor Vlieland Heliport op 15 april 2021 18:55, lokale tijd.

Vliegveldwaarnemingen

De wind staat vanuit de richting noordnoordoost (020°) met een snelheid van 13 kt.

Het zicht is 10 km of meer.

Er is geheel bewolkt op 23.000 ft hoogte. De wolkenbasis, broken of meer, is 23.000 ft.

De temperatuur is 7 °C, met een gevoelstemperatuur van 2 °C. Het dauwpunt is 3 °C, dus is de relatieve luchtvochtigheid 76%. De luchtdruk op zeeniveau is 1031 hPa (QNH).

Daglichtperiode

De zon komt vandaag op om 06:39 en gaat onder om 20:39. Dit geldt voor Vlieland Heliport, de universele daglichtperiode kan anders zijn. Het verschil tussen de lokale tijd en UTC is +2 uur. Op dit moment is er sprake van zomertijd.

Historische gegevens

Doneren

Help je mee om Metar-Taf.com draaiend te houden?
Jouw bijdrage helpt om de site verder te ontwikkelen en om de kosten te betalen.

Nooit meer advertenties

Doneer je € 5 of meer? Dan laten we je nooit meer advertenties zien, als blijk van onze eeuwige dankbaarheid!
Log wel even in voordat je doneert

Wil je het vliegweer van Vlieland Heliport op jouw website? Meer info   Gratis!